Time;durP1;ratioP1;P1;durP2;ratioP2;P2;SDS_P1;SDS_P2;PMS_P1;PMS_P2;Temp;Humidity;BMP_temperature;BMP_pressure;BME280_temperature;BME280_humidity;BME280_pressure;Samples;Min_cycle;Max_cycle;Signal;HPM_P1;HPM_P2
2022/03/06 00:02:20;;;;;;;54.85;35.63;;;4.70;74.80;;;;;;5096594;28;20048;-88
2022/03/06 00:04:47;;;;;;;60.38;37.60;;;4.70;74.80;;;;;;5094847;28;20048;-88
2022/03/06 00:07:14;;;;;;;58.17;36.03;;;4.70;74.90;;;;;;5094301;28;20101;-89
2022/03/06 00:09:41;;;;;;;58.97;35.50;;;4.70;74.90;;;;;;5094524;28;20544;-88
2022/03/06 00:12:08;;;;;;;60.50;35.38;;;4.70;74.90;;;;;;5094330;28;20043;-88
2022/03/06 00:14:35;;;;;;;59.10;36.17;;;4.60;74.90;;;;;;5095314;28;20062;-89
2022/03/06 00:17:02;;;;;;;62.03;37.40;;;4.60;74.90;;;;;;5095882;28;20099;-88
2022/03/06 00:19:29;;;;;;;61.30;35.20;;;4.60;74.90;;;;;;5094200;28;20109;-89
2022/03/06 00:21:55;;;;;;;66.45;35.92;;;4.60;74.90;;;;;;5094042;28;20044;-89
2022/03/06 00:24:22;;;;;;;65.15;36.72;;;4.50;74.90;;;;;;5094234;28;20105;-90
2022/03/06 00:26:49;;;;;;;60.42;35.50;;;4.50;74.90;;;;;;5093047;28;20117;-89
2022/03/06 00:29:16;;;;;;;59.58;34.97;;;4.50;74.90;;;;;;5096179;28;20512;-89
2022/03/06 00:31:43;;;;;;;61.25;37.20;;;4.50;74.90;;;;;;5094022;28;20048;-89
2022/03/06 00:34:10;;;;;;;62.90;37.20;;;4.50;75.00;;;;;;5094129;28;20120;-88
2022/03/06 00:36:37;;;;;;;60.90;35.83;;;4.50;75.00;;;;;;5093603;28;20448;-89
2022/03/06 00:39:04;;;;;;;59.20;35.35;;;4.40;75.00;;;;;;5093847;28;20117;-88
2022/03/06 00:41:32;;;;;;;57.75;34.58;;;4.40;75.00;;;;;;5095104;28;20094;-87
2022/03/06 00:43:59;;;;;;;59.78;37.00;;;4.40;75.00;;;;;;5095032;28;20419;-89
2022/03/06 00:46:26;;;;;;;63.17;36.63;;;4.40;75.00;;;;;;5093876;28;20048;-88
2022/03/06 00:48:53;;;;;;;64.25;36.63;;;4.40;75.00;;;;;;5093422;28;20036;-88
2022/03/06 00:51:20;;;;;;;61.35;36.40;;;4.40;75.00;;;;;;5093642;28;20039;-89
2022/03/06 00:53:47;;;;;;;70.53;37.13;;;4.40;75.00;;;;;;5093808;28;20461;-88
2022/03/06 00:56:14;;;;;;;60.05;36.38;;;4.30;75.10;;;;;;5095786;28;20052;-88
2022/03/06 00:58:41;;;;;;;66.38;37.75;;;4.30;75.10;;;;;;5093506;28;20498;-89
2022/03/06 01:01:07;;;;;;;62.17;36.17;;;4.30;75.10;;;;;;5093352;28;20047;-89
2022/03/06 01:03:35;;;;;;;58.95;35.83;;;4.30;75.10;;;;;;5091230;28;20414;-89
2022/03/06 01:06:02;;;;;;;58.03;35.58;;;4.30;75.10;;;;;;5092077;28;20498;-89
2022/03/06 01:08:29;;;;;;;59.60;34.70;;;4.20;75.10;;;;;;5094757;28;20056;-89
2022/03/06 01:10:56;;;;;;;64.30;36.08;;;4.20;75.10;;;;;;5094191;28;20074;-86
2022/03/06 01:13:23;;;;;;;64.30;36.40;;;4.30;75.10;;;;;;5091185;28;20056;-89
2022/03/06 01:15:50;;;;;;;63.75;34.63;;;4.20;75.10;;;;;;5093238;28;20505;-88
2022/03/06 01:18:17;;;;;;;64.10;35.63;;;4.20;75.10;;;;;;5092887;28;20554;-88
2022/03/06 01:20:44;;;;;;;67.55;36.22;;;4.20;75.10;;;;;;5093337;28;20044;-88
2022/03/06 01:23:11;;;;;;;67.93;37.75;;;4.20;75.10;;;;;;5095356;28;20123;-88
2022/03/06 01:25:38;;;;;;;63.50;36.75;;;4.10;75.10;;;;;;5092993;28;20052;-88
2022/03/06 01:28:05;;;;;;;60.03;34.25;;;4.10;75.10;;;;;;5093101;28;20067;-90
2022/03/06 01:30:32;;;;;;;59.75;35.65;;;4.10;75.10;;;;;;5093071;28;20052;-89
2022/03/06 01:33:00;;;;;;;62.50;36.47;;;4.10;75.20;;;;;;5093124;28;20094;-88
2022/03/06 01:35:27;;;;;;;61.38;34.72;;;4.10;75.20;;;;;;5094269;28;20383;-90
2022/03/06 01:37:54;;;;;;;71.47;35.67;;;4.00;75.20;;;;;;5092086;28;20052;-89
2022/03/06 01:40:21;;;;;;;57.75;34.05;;;4.10;75.20;;;;;;5093034;28;20040;-89
2022/03/06 01:42:49;;;;;;;59.40;33.97;;;4.00;75.20;;;;;;5090945;28;20056;-90
2022/03/06 01:45:20;;;;;;;62.15;35.63;;;4.00;75.20;;;;;;5093052;28;20048;-89
2022/03/06 01:47:50;;;;;;;61.47;36.30;;;4.00;75.20;;;;;;5092762;28;20048;-89
2022/03/06 01:50:24;;;;;;;57.67;33.70;;;4.00;75.20;;;;;;5094931;28;20044;-89
2022/03/06 01:52:52;;;;;;;59.33;35.80;;;4.00;75.20;;;;;;5091984;28;20086;-90
2022/03/06 01:55:20;;;;;;;56.50;33.70;;;4.00;75.20;;;;;;5091172;28;20047;-90
2022/03/06 01:57:47;;;;;;;61.83;36.13;;;4.00;75.20;;;;;;5091676;28;20052;-90
2022/03/06 02:00:20;;;;;;;60.08;35.13;;;4.00;75.20;;;;;;5092885;28;20048;-90
2022/03/06 02:02:48;;;;;;;55.10;33.67;;;3.90;75.20;;;;;;5091426;28;20850;-88
2022/03/06 02:05:16;;;;;;;60.08;37.38;;;3.90;75.20;;;;;;5094036;28;20559;-90
2022/03/06 02:07:43;;;;;;;62.90;34.47;;;3.90;75.20;;;;;;5091047;28;20048;-90
2022/03/06 02:10:13;;;;;;;58.40;34.45;;;3.90;75.20;;;;;;5092553;28;20048;-89
2022/03/06 02:12:42;;;;;;;60.47;35.17;;;3.90;75.20;;;;;;5085980;28;20396;-89
2022/03/06 02:15:11;;;;;;;62.22;35.97;;;3.90;75.20;;;;;;5092841;28;20096;-90
2022/03/06 02:17:39;;;;;;;55.35;33.70;;;3.90;75.20;;;;;;5092430;28;20124;-89
2022/03/06 02:20:11;;;;;;;60.53;34.65;;;3.90;75.20;;;;;;5091977;28;20048;-89
2022/03/06 02:22:40;;;;;;;58.28;34.92;;;3.90;75.20;;;;;;5092170;28;20488;-88
2022/03/06 02:25:11;;;;;;;58.13;35.17;;;3.90;75.20;;;;;;5090490;28;20455;-89
2022/03/06 02:27:38;;;;;;;67.95;35.80;;;3.80;75.20;;;;;;5090186;28;20048;-90
2022/03/06 02:30:07;;;;;;;62.88;35.92;;;3.80;75.20;;;;;;5090627;28;20075;-89
2022/03/06 02:32:35;;;;;;;60.53;34.42;;;3.80;75.20;;;;;;5092530;28;20052;-89
2022/03/06 02:35:02;;;;;;;58.53;35.80;;;3.80;75.20;;;;;;5093780;28;20078;-88
2022/03/06 02:37:29;;;;;;;60.45;35.47;;;3.80;75.20;;;;;;5091814;28;20052;-88
2022/03/06 02:40:00;;;;;;;60.35;35.05;;;3.70;75.10;;;;;;5091942;28;20089;-88
2022/03/06 02:42:32;;;;;;;68.57;35.42;;;3.70;75.20;;;;;;5090382;28;20052;-88
2022/03/06 02:45:09;;;;;;;61.78;35.38;;;3.70;75.20;;;;;;5076082;28;20097;-89
2022/03/06 02:47:37;;;;;;;65.85;36.35;;;3.70;75.20;;;;;;5092317;28;20048;-87
2022/03/06 02:50:07;;;;;;;62.67;36.92;;;3.70;75.20;;;;;;5093575;28;20097;-89
2022/03/06 02:52:34;;;;;;;60.75;35.53;;;3.70;75.20;;;;;;5091864;28;20051;-88
2022/03/06 02:55:02;;;;;;;64.43;35.28;;;3.70;75.20;;;;;;5091622;28;20052;-89
2022/03/06 02:57:29;;;;;;;61.40;35.65;;;3.60;75.20;;;;;;5091381;28;20093;-88
2022/03/06 02:59:56;;;;;;;61.33;35.60;;;3.60;75.20;;;;;;5091247;28;20105;-88
2022/03/06 03:02:23;;;;;;;62.83;36.28;;;3.60;75.30;;;;;;5093644;28;20149;-88
2022/03/06 03:04:50;;;;;;;61.45;35.10;;;3.60;75.30;;;;;;5090178;28;20051;-87
2022/03/06 03:07:17;;;;;;;64.20;36.05;;;3.60;75.30;;;;;;5091163;28;20040;-88
2022/03/06 03:09:44;;;;;;;63.90;35.88;;;3.60;75.30;;;;;;5091169;28;20044;-88
2022/03/06 03:12:11;;;;;;;64.43;35.72;;;3.50;75.30;;;;;;5091299;28;20044;-88
2022/03/06 03:14:38;;;;;;;63.15;35.75;;;3.50;75.30;;;;;;5091036;28;20048;-88
2022/03/06 03:17:05;;;;;;;60.90;35.00;;;3.50;75.30;;;;;;5092992;28;20070;-88
2022/03/06 03:19:33;;;;;;;67.38;37.05;;;3.50;75.30;;;;;;5088633;28;20047;-88
2022/03/06 03:22:00;;;;;;;61.95;35.38;;;3.50;75.40;;;;;;5088828;28;20093;-88
2022/03/06 03:24:27;;;;;;;70.53;37.85;;;3.50;75.40;;;;;;5090775;28;20502;-87
2022/03/06 03:26:54;;;;;;;65.07;35.60;;;3.50;75.40;;;;;;5090975;28;20094;-88
2022/03/06 03:29:21;;;;;;;58.15;34.50;;;3.40;75.40;;;;;;5092469;28;20109;-87
2022/03/06 03:31:48;;;;;;;66.72;36.63;;;3.40;75.40;;;;;;5089999;28;20510;-87
2022/03/06 03:34:15;;;;;;;58.40;34.97;;;3.40;75.40;;;;;;5090500;28;20051;-88
2022/03/06 03:36:43;;;;;;;59.17;34.90;;;3.40;75.40;;;;;;5090581;28;20468;-88
2022/03/06 03:39:10;;;;;;;61.33;35.72;;;3.40;75.50;;;;;;5090448;28;20127;-87
2022/03/06 03:41:37;;;;;;;60.08;36.13;;;3.40;75.50;;;;;;5091430;28;20043;-87
2022/03/06 03:44:04;;;;;;;64.50;35.70;;;3.40;75.50;;;;;;5089934;28;20078;-87
2022/03/06 03:46:31;;;;;;;63.63;36.67;;;3.40;75.50;;;;;;5090464;28;20413;-87
2022/03/06 03:48:58;;;;;;;62.17;34.65;;;3.40;75.50;;;;;;5090431;28;20044;-88
2022/03/06 03:51:25;;;;;;;57.80;34.50;;;3.40;75.50;;;;;;5090421;28;20048;-87
2022/03/06 03:53:52;;;;;;;65.72;35.90;;;3.40;75.50;;;;;;5090506;28;20125;-88
2022/03/06 03:56:21;;;;;;;65.30;37.03;;;3.30;75.50;;;;;;5092469;28;20052;-88
2022/03/06 03:58:48;;;;;;;67.57;36.33;;;3.40;75.60;;;;;;5089909;28;20515;-89
2022/03/06 04:01:19;;;;;;;63.47;35.28;;;3.30;75.60;;;;;;5090215;28;20044;-87
2022/03/06 04:03:46;;;;;;;65.72;36.30;;;3.30;75.60;;;;;;5090278;28;20467;-87
2022/03/06 04:06:13;;;;;;;60.13;34.38;;;3.30;75.60;;;;;;5090370;28;20043;-87
2022/03/06 04:08:41;;;;;;;63.17;37.17;;;3.30;75.60;;;;;;5090274;28;20048;-87
2022/03/06 04:11:08;;;;;;;61.88;36.35;;;3.30;75.60;;;;;;5092466;28;20059;-87
2022/03/06 04:13:35;;;;;;;57.17;35.65;;;3.30;75.60;;;;;;5089770;28;20472;-87
2022/03/06 04:16:02;;;;;;;62.90;36.83;;;3.30;75.60;;;;;;5090075;28;20037;-87
2022/03/06 04:18:30;;;;;;;58.92;35.78;;;3.20;75.60;;;;;;5089905;28;20484;-87
2022/03/06 04:20:56;;;;;;;67.10;37.35;;;3.20;75.60;;;;;;5088775;28;20052;-85
2022/03/06 04:23:23;;;;;;;62.85;35.28;;;3.20;75.60;;;;;;5092426;28;20476;-87
2022/03/06 04:25:50;;;;;;;62.75;36.25;;;3.20;75.60;;;;;;5087283;28;20188;-88
2022/03/06 04:28:17;;;;;;;59.45;35.55;;;3.20;75.60;;;;;;5089721;28;20089;-87
2022/03/06 04:30:44;;;;;;;59.95;35.03;;;3.20;75.60;;;;;;5090087;28;20052;-87
2022/03/06 04:33:11;;;;;;;64.28;36.22;;;3.10;75.60;;;;;;5087918;28;20086;-87
2022/03/06 04:35:38;;;;;;;63.40;35.83;;;3.10;75.60;;;;;;5090428;28;20101;-86
2022/03/06 04:38:05;;;;;;;63.65;36.95;;;3.10;75.60;;;;;;5091782;28;20052;-86
2022/03/06 04:40:32;;;;;;;59.67;35.60;;;3.00;75.60;;;;;;5089905;28;20044;-87
2022/03/06 04:42:59;;;;;;;63.95;34.15;;;3.10;75.60;;;;;;5089463;28;20047;-87
2022/03/06 04:45:26;;;;;;;60.22;34.70;;;3.00;75.60;;;;;;5093777;28;20505;-87
2022/03/06 04:47:53;;;;;;;60.08;35.30;;;3.00;75.60;;;;;;5093676;28;20041;-87
2022/03/06 04:50:20;;;;;;;52.50;34.15;;;3.00;75.50;;;;;;5095648;28;20052;-88
2022/03/06 04:52:52;;;;;;;59.35;35.85;;;3.00;75.50;;;;;;5092968;28;20044;-88
2022/03/06 04:55:19;;;;;;;58.13;34.70;;;3.00;75.50;;;;;;5092308;28;20040;-88
2022/03/06 04:57:46;;;;;;;58.60;34.55;;;2.90;75.50;;;;;;5092987;28;20048;-87
2022/03/06 05:00:15;;;;;;;60.05;33.55;;;2.90;75.50;;;;;;5093358;28;20044;-88
2022/03/06 05:02:42;;;;;;;58.85;34.05;;;2.90;75.50;;;;;;5093393;28;20044;-87
2022/03/06 05:05:10;;;;;;;55.47;33.85;;;2.90;75.40;;;;;;5095535;28;20067;-87
2022/03/06 05:07:38;;;;;;;56.88;34.92;;;2.90;75.40;;;;;;5090847;28;20188;-86
2022/03/06 05:10:09;;;;;;;55.30;34.03;;;2.90;75.40;;;;;;5092923;28;20168;-86
2022/03/06 05:12:39;;;;;;;61.08;33.88;;;2.90;75.40;;;;;;5093017;28;20138;-86
2022/03/06 05:15:07;;;;;;;57.60;33.22;;;2.80;75.30;;;;;;5093182;28;20061;-87
2022/03/06 05:17:36;;;;;;;56.80;34.28;;;2.80;75.30;;;;;;5093782;28;20494;-88
2022/03/06 05:20:05;;;;;;;56.20;33.15;;;2.80;75.30;;;;;;5094580;28;20502;-88
2022/03/06 05:22:33;;;;;;;59.35;34.17;;;2.80;75.20;;;;;;5092911;28;20627;-87
2022/03/06 05:25:00;;;;;;;54.72;32.80;;;2.80;75.20;;;;;;5092249;28;20044;-86
2022/03/06 05:27:27;;;;;;;58.05;33.30;;;2.70;75.20;;;;;;5092936;28;20043;-86
2022/03/06 05:29:54;;;;;;;61.63;33.72;;;2.70;75.20;;;;;;5074532;28;20507;-86
2022/03/06 05:32:21;;;;;;;60.75;34.58;;;2.70;75.20;;;;;;5094804;28;20044;-88
2022/03/06 05:34:48;;;;;;;55.15;33.03;;;2.70;75.20;;;;;;5092583;28;20052;-87
2022/03/06 05:37:15;;;;;;;54.28;33.63;;;2.60;75.10;;;;;;5092452;28;20040;-88
2022/03/06 05:39:42;;;;;;;55.42;32.80;;;2.60;75.10;;;;;;5090714;28;20109;-88
2022/03/06 05:42:09;;;;;;;58.83;34.65;;;2.60;75.10;;;;;;5092792;28;20044;-88
2022/03/06 05:44:36;;;;;;;56.28;33.80;;;2.60;75.10;;;;;;5093209;28;20452;-87
2022/03/06 05:47:04;;;;;;;57.92;33.17;;;2.60;75.10;;;;;;5094175;28;20066;-87
2022/03/06 05:49:30;;;;;;;57.85;33.20;;;2.50;75.10;;;;;;5092357;28;20338;-87
2022/03/06 05:51:57;;;;;;;61.10;34.72;;;2.60;75.10;;;;;;5092319;28;20058;-87
2022/03/06 05:54:24;;;;;;;60.08;34.28;;;2.50;75.10;;;;;;5089859;28;20052;-87
2022/03/06 05:56:51;;;;;;;54.13;33.33;;;2.50;75.10;;;;;;5091533;28;20048;-86
2022/03/06 05:59:18;;;;;;;58.50;34.95;;;2.50;75.10;;;;;;5093157;28;20539;-87
2022/03/06 06:01:45;;;;;;;65.90;34.53;;;2.50;75.10;;;;;;5092055;28;20086;-87
2022/03/06 06:04:12;;;;;;;62.25;34.60;;;2.50;75.10;;;;;;5092144;28;20047;-87
2022/03/06 06:06:39;;;;;;;58.75;34.33;;;2.40;75.10;;;;;;5092000;28;20094;-87
2022/03/06 06:09:07;;;;;;;60.33;33.85;;;2.40;75.20;;;;;;5091612;28;20044;-87
2022/03/06 06:11:34;;;;;;;52.50;32.97;;;2.40;75.20;;;;;;5093151;28;20044;-87
2022/03/06 06:14:01;;;;;;;56.85;33.67;;;2.40;75.20;;;;;;5093158;28;20455;-86
2022/03/06 06:16:29;;;;;;;53.22;32.25;;;2.40;75.20;;;;;;5091822;28;20048;-87
2022/03/06 06:18:56;;;;;;;52.42;33.17;;;2.40;75.20;;;;;;5090255;28;20040;-87
2022/03/06 06:21:23;;;;;;;59.72;34.75;;;2.40;75.20;;;;;;5091852;28;20464;-86
2022/03/06 06:23:50;;;;;;;66.43;33.55;;;2.30;75.20;;;;;;5091605;28;20498;-87
2022/03/06 06:26:18;;;;;;;56.15;34.20;;;2.30;75.20;;;;;;5093627;28;20056;-87
2022/03/06 06:28:45;;;;;;;54.33;32.88;;;2.30;75.30;;;;;;5091635;28;20507;-86
2022/03/06 06:31:12;;;;;;;54.30;31.88;;;2.30;75.30;;;;;;5091474;28;20044;-86
2022/03/06 06:33:38;;;;;;;59.65;35.03;;;2.20;75.30;;;;;;5091488;28;20517;-87
2022/03/06 06:36:06;;;;;;;58.00;33.38;;;2.20;75.30;;;;;;5091567;28;20039;-87
2022/03/06 06:38:33;;;;;;;63.50;35.45;;;2.20;75.40;;;;;;5092163;28;20056;-88
2022/03/06 06:41:00;;;;;;;57.92;33.75;;;2.20;75.40;;;;;;5092732;28;20052;-88
2022/03/06 06:43:29;;;;;;;63.80;35.55;;;2.20;75.40;;;;;;5091206;28;20085;-86
2022/03/06 06:45:56;;;;;;;62.75;33.65;;;2.20;75.50;;;;;;5091284;28;20096;-86
2022/03/06 06:48:23;;;;;;;60.47;34.75;;;2.20;75.50;;;;;;5091204;28;20048;-87
2022/03/06 06:50:50;;;;;;;61.22;34.65;;;2.20;75.50;;;;;;5091253;28;20054;-86
2022/03/06 06:53:17;;;;;;;55.50;33.63;;;2.20;75.50;;;;;;5093048;28;20403;-86
2022/03/06 06:55:44;;;;;;;57.88;34.03;;;2.20;75.50;;;;;;5090946;28;20054;-86
2022/03/06 06:58:11;;;;;;;56.20;33.97;;;2.10;75.50;;;;;;5088160;28;20748;-87
2022/03/06 07:00:38;;;;;;;59.80;34.45;;;2.10;75.60;;;;;;5088702;28;20052;-87
2022/03/06 07:03:06;;;;;;;56.55;34.60;;;2.10;75.60;;;;;;5090405;28;20425;-86
2022/03/06 07:05:33;;;;;;;53.75;32.53;;;2.20;75.60;;;;;;5096242;28;20044;-86
2022/03/06 07:08:00;;;;;;;55.33;33.67;;;2.10;75.60;;;;;;5091072;28;20537;-86
2022/03/06 07:10:27;;;;;;;59.03;34.97;;;2.10;75.70;;;;;;5090127;28;20051;-86
2022/03/06 07:12:55;;;;;;;62.70;34.25;;;2.10;75.70;;;;;;5090410;28;20476;-86
2022/03/06 07:15:28;;;;;;;58.67;34.22;;;2.10;75.70;;;;;;5088927;28;20109;-85
2022/03/06 07:17:59;;;;;;;54.50;35.00;;;2.10;75.80;;;;;;5096744;28;20052;-86
2022/03/06 07:20:27;;;;;;;58.08;35.35;;;2.20;75.80;;;;;;5088364;28;20052;-86
2022/03/06 07:22:54;;;;;;;62.20;34.72;;;2.10;75.80;;;;;;5089527;28;20395;-86
2022/03/06 07:25:22;;;;;;;62.28;35.00;;;2.10;75.80;;;;;;5089547;28;20399;-86
2022/03/06 07:27:49;;;;;;;55.00;34.30;;;2.10;75.80;;;;;;5090227;28;20582;-86
2022/03/06 07:30:16;;;;;;;56.42;33.65;;;2.10;75.80;;;;;;5090377;28;20067;-86
2022/03/06 07:32:47;;;;;;;58.75;34.88;;;2.10;75.90;;;;;;5090263;28;20052;-87
2022/03/06 07:35:15;;;;;;;57.92;34.88;;;2.20;75.90;;;;;;5091744;28;20101;-88
2022/03/06 07:37:42;;;;;;;60.17;36.38;;;2.10;75.90;;;;;;5088660;28;20403;-87
2022/03/06 07:40:14;;;;;;;57.45;34.95;;;2.20;75.90;;;;;;5089713;28;20097;-87
2022/03/06 07:42:42;;;;;;;60.97;35.97;;;2.20;76.00;;;;;;5090107;28;20051;-87
2022/03/06 07:45:10;;;;;;;58.15;35.30;;;2.20;76.00;;;;;;5090124;28;20044;-87
2022/03/06 07:47:37;;;;;;;59.08;35.80;;;2.20;76.00;;;;;;5090404;28;20044;-87
2022/03/06 07:50:07;;;;;;;57.72;36.13;;;2.20;76.10;;;;;;5091450;28;20048;-86
2022/03/06 07:52:35;;;;;;;60.40;36.42;;;2.20;76.10;;;;;;5089954;28;20105;-87
2022/03/06 07:55:03;;;;;;;56.83;35.55;;;2.20;76.10;;;;;;5080108;28;20094;-88
2022/03/06 07:57:30;;;;;;;55.13;35.08;;;2.20;76.20;;;;;;5090034;28;20528;-89
2022/03/06 07:59:57;;;;;;;58.67;36.42;;;2.20;76.20;;;;;;5090019;28;20101;-88
2022/03/06 08:02:24;;;;;;;54.95;35.60;;;2.20;76.20;;;;;;5091697;28;20117;-87
2022/03/06 08:04:51;;;;;;;57.90;35.42;;;2.30;76.20;;;;;;5088636;28;20174;-87
2022/03/06 08:07:18;;;;;;;57.95;35.33;;;2.20;76.20;;;;;;5089881;28;20044;-89
2022/03/06 08:09:45;;;;;;;59.67;34.33;;;2.20;76.20;;;;;;5089722;28;20056;-88
2022/03/06 08:12:12;;;;;;;61.75;36.47;;;2.20;76.20;;;;;;5090148;28;20097;-88
2022/03/06 08:14:39;;;;;;;58.38;35.65;;;2.30;76.30;;;;;;5090329;28;20052;-87
2022/03/06 08:17:06;;;;;;;62.15;36.58;;;2.30;76.30;;;;;;5089481;28;20476;-87
2022/03/06 08:19:33;;;;;;;58.78;36.00;;;2.30;76.30;;;;;;5091961;28;20559;-88
2022/03/06 08:22:00;;;;;;;56.03;34.53;;;2.40;76.30;;;;;;5094111;28;20093;-87
2022/03/06 08:24:28;;;;;;;56.55;36.45;;;2.40;76.20;;;;;;5092429;28;20047;-88
2022/03/06 08:26:55;;;;;;;54.13;34.45;;;2.40;76.30;;;;;;5078092;28;20469;-88
2022/03/06 08:29:22;;;;;;;59.78;34.72;;;2.40;76.20;;;;;;5091732;28;20497;-89
2022/03/06 08:31:52;;;;;;;52.15;34.00;;;2.40;76.20;;;;;;5093941;28;20410;-88
2022/03/06 08:34:19;;;;;;;55.65;35.22;;;2.40;76.20;;;;;;5093638;28;20554;-87
2022/03/06 08:36:46;;;;;;;58.78;35.35;;;2.50;76.20;;;;;;5093890;28;20052;-88
2022/03/06 08:39:13;;;;;;;55.08;34.65;;;2.50;76.20;;;;;;5093473;28;20052;-88
2022/03/06 08:41:40;;;;;;;57.92;34.65;;;2.50;76.20;;;;;;5093806;28;20081;-88
2022/03/06 08:44:07;;;;;;;57.70;35.58;;;2.50;76.20;;;;;;5093651;28;20105;-87
2022/03/06 08:46:37;;;;;;;61.33;36.88;;;2.60;76.10;;;;;;5092856;28;20059;-88
2022/03/06 08:49:04;;;;;;;56.28;36.63;;;2.60;76.10;;;;;;5092932;28;20048;-87
2022/03/06 08:51:32;;;;;;;59.08;37.97;;;2.70;76.00;;;;;;5093427;28;20048;-88
2022/03/06 08:54:00;;;;;;;56.25;36.72;;;2.70;76.00;;;;;;5099796;28;20048;-89
2022/03/06 08:56:27;;;;;;;58.70;35.25;;;2.70;75.90;;;;;;5094945;28;20110;-88
2022/03/06 08:58:54;;;;;;;59.50;37.22;;;2.80;75.90;;;;;;5091004;28;20054;-88
2022/03/06 09:01:21;;;;;;;55.13;36.20;;;2.80;75.80;;;;;;5093431;28;20426;-89
2022/03/06 09:03:49;;;;;;;53.88;35.28;;;2.90;75.80;;;;;;5092226;28;20056;-87
2022/03/06 09:06:16;;;;;;;50.72;34.28;;;2.90;75.70;;;;;;5093596;28;20505;-87
2022/03/06 09:08:43;;;;;;;55.20;35.33;;;2.90;75.70;;;;;;5093467;28;20064;-88
2022/03/06 09:11:10;;;;;;;52.35;34.28;;;3.00;75.60;;;;;;5095545;28;20044;-88
2022/03/06 09:13:37;;;;;;;53.95;35.33;;;3.10;75.60;;;;;;5093228;28;20043;-88
2022/03/06 09:16:04;;;;;;;53.90;34.33;;;3.10;75.50;;;;;;5091815;28;20040;-90
2022/03/06 09:18:31;;;;;;;56.13;36.78;;;3.10;75.50;;;;;;5092962;28;20078;-90
2022/03/06 09:20:58;;;;;;;49.08;33.55;;;3.20;75.40;;;;;;5091985;28;20040;-88
2022/03/06 09:23:25;;;;;;;56.35;35.67;;;3.30;75.40;;;;;;5095617;28;20108;-89
2022/03/06 09:25:52;;;;;;;55.70;34.53;;;3.30;75.30;;;;;;5093465;28;20052;-88
2022/03/06 09:28:20;;;;;;;50.28;32.67;;;3.40;75.30;;;;;;5092988;28;20093;-89
2022/03/06 09:30:47;;;;;;;53.00;33.88;;;3.40;75.20;;;;;;5091637;28;20056;-88
2022/03/06 09:33:14;;;;;;;51.03;33.10;;;3.50;75.10;;;;;;5091365;28;20044;-88
2022/03/06 09:35:41;;;;;;;48.50;31.85;;;3.60;75.00;;;;;;5093090;28;20052;-89
2022/03/06 09:38:08;;;;;;;48.42;32.33;;;3.70;74.90;;;;;;5094975;28;20105;-89
2022/03/06 09:40:37;;;;;;;46.63;31.95;;;3.70;74.80;;;;;;5092736;28;20048;-88
2022/03/06 09:43:07;;;;;;;49.05;32.50;;;3.80;74.60;;;;;;5092892;28;20094;-88
2022/03/06 09:45:40;;;;;;;48.60;33.50;;;3.90;74.50;;;;;;5092617;28;20047;-89
2022/03/06 09:48:09;;;;;;;46.50;32.50;;;3.90;74.40;;;;;;5092819;28;20047;-89
2022/03/06 09:50:36;;;;;;;46.63;32.47;;;4.00;74.30;;;;;;5093372;28;20113;-89
2022/03/06 09:53:04;;;;;;;46.35;32.40;;;4.10;74.30;;;;;;5094222;28;20051;-88
2022/03/06 09:55:31;;;;;;;43.08;30.85;;;4.20;74.10;;;;;;5092442;28;20051;-89
2022/03/06 09:57:58;;;;;;;42.80;31.70;;;4.30;73.90;;;;;;5093764;28;20078;-89
2022/03/06 10:00:29;;;;;;;43.63;31.85;;;4.40;73.80;;;;;;5092072;28;20079;-90
2022/03/06 10:02:59;;;;;;;44.38;31.85;;;4.50;73.50;;;;;;5092370;28;20127;-91
2022/03/06 10:05:27;;;;;;;44.70;32.17;;;4.60;73.30;;;;;;5090487;28;20517;-90
2022/03/06 10:08:20;;;;;;;44.88;31.75;;;4.70;73.10;;;;;;5090256;28;20101;-91
2022/03/06 10:10:50;;;;;;;41.33;30.63;;;4.90;72.80;;;;;;5092244;28;20048;-89
2022/03/06 10:13:25;;;;;;;43.15;30.42;;;4.90;72.30;;;;;;5092402;28;20540;-89
2022/03/06 10:16:20;;;;;;;41.67;29.90;;;5.00;71.90;;;;;;5092125;28;20044;-89
2022/03/06 10:18:53;;;;;;;41.25;29.88;;;5.20;71.60;;;;;;5092198;28;20139;-89
2022/03/06 10:21:26;;;;;;;41.55;29.63;;;5.30;71.30;;;;;;5091103;28;20402;-89
2022/03/06 10:24:08;;;;;;;39.40;28.10;;;5.40;71.10;;;;;;5092211;28;20040;-89
2022/03/06 10:26:37;;;;;;;41.63;29.42;;;5.50;70.80;;;;;;5090337;28;20048;-89
2022/03/06 10:29:11;;;;;;;36.85;28.08;;;5.60;70.60;;;;;;5093465;28;20058;-88
2022/03/06 10:31:54;;;;;;;37.22;27.67;;;5.80;70.30;;;;;;5091910;28;20052;-89
2022/03/06 10:34:37;;;;;;;35.92;28.02;;;5.90;69.90;;;;;;5091892;28;20421;-90
2022/03/06 10:37:06;;;;;;;39.33;28.40;;;5.90;69.70;;;;;;5091803;28;20566;-90
2022/03/06 10:39:44;;;;;;;34.83;26.55;;;6.00;69.40;;;;;;5091841;28;20105;-89
2022/03/06 10:42:11;;;;;;;40.90;27.52;;;6.20;69.10;;;;;;5091400;28;20047;-90
2022/03/06 10:44:44;;;;;;;37.40;26.80;;;6.20;68.80;;;;;;5085522;28;20063;-90
2022/03/06 10:47:16;;;;;;;34.63;26.70;;;6.30;68.50;;;;;;5093653;28;20058;-91
2022/03/06 10:50:02;;;;;;;35.92;26.33;;;6.40;68.10;;;;;;5090335;28;20048;-93
2022/03/06 10:52:29;;;;;;;34.20;25.80;;;6.50;67.70;;;;;;5094928;28;20117;-91
2022/03/06 10:55:00;;;;;;;36.65;25.40;;;6.60;67.30;;;;;;5091388;28;20051;-92
2022/03/06 10:57:27;;;;;;;35.72;26.70;;;6.60;66.90;;;;;;5090354;28;20051;-91
2022/03/06 10:59:55;;;;;;;34.95;25.27;;;6.70;66.50;;;;;;5091360;28;20457;-91
2022/03/06 11:02:25;;;;;;;33.55;24.75;;;6.80;66.20;;;;;;5092703;28;20452;-91
2022/03/06 11:04:53;;;;;;;35.13;25.73;;;6.90;65.90;;;;;;5084451;28;20403;-91
2022/03/06 11:07:21;;;;;;;35.25;25.52;;;6.90;65.60;;;;;;5091286;28;20048;-92
2022/03/06 11:09:49;;;;;;;31.95;23.50;;;6.90;65.40;;;;;;5091045;28;20048;-90
2022/03/06 11:12:17;;;;;;;33.13;23.83;;;7.00;65.00;;;;;;5091312;28;20043;-90
2022/03/06 11:14:47;;;;;;;33.90;24.95;;;7.10;64.80;;;;;;5090710;28;20048;-91
2022/03/06 11:17:17;;;;;;;33.80;25.20;;;7.10;64.50;;;;;;5092663;28;20048;-91
2022/03/06 11:19:44;;;;;;;34.40;26.02;;;7.20;64.30;;;;;;5090722;28;20051;-90
2022/03/06 11:22:19;;;;;;;36.80;26.23;;;7.20;64.10;;;;;;5091087;28;20047;-91
2022/03/06 11:24:51;;;;;;;32.53;23.88;;;7.20;63.90;;;;;;5091567;28;20494;-90
2022/03/06 11:27:40;;;;;;;35.17;24.70;;;7.30;63.70;;;;;;5090747;28;20048;-90
2022/03/06 11:30:18;;;;;;;31.23;23.70;;;7.40;63.40;;;;;;5076808;28;20044;-91
2022/03/06 11:32:57;;;;;;;30.13;23.77;;;7.40;63.30;;;;;;5090656;28;20093;-91
2022/03/06 11:35:47;;;;;;;31.75;23.45;;;7.40;63.10;;;;;;5089165;28;20048;-89
2022/03/06 11:38:17;;;;;;;31.65;24.63;;;7.40;62.90;;;;;;5091771;28;20464;-90
2022/03/06 11:40:49;;;;;;;31.63;22.65;;;7.50;62.70;;;;;;5090904;28;20052;-92
2022/03/06 11:43:31;;;;;;;31.85;23.75;;;7.50;62.60;;;;;;5090493;28;20040;-92
2022/03/06 11:45:58;;;;;;;28.90;23.13;;;7.60;62.50;;;;;;5090464;28;20044;-91
2022/03/06 11:48:34;;;;;;;32.20;23.58;;;7.60;62.40;;;;;;5090840;28;20047;-92
2022/03/06 11:51:22;;;;;;;31.20;22.08;;;7.60;62.20;;;;;;5073911;28;20097;-91
2022/03/06 11:53:51;;;;;;;26.38;21.23;;;7.70;62.00;;;;;;5089620;28;20052;-90
2022/03/06 11:56:39;;;;;;;31.75;23.08;;;7.70;61.90;;;;;;5092363;28;20472;-91
2022/03/06 11:59:17;;;;;;;28.63;22.35;;;7.70;61.80;;;;;;5090899;28;20094;-91
2022/03/06 12:01:44;;;;;;;27.92;21.85;;;7.80;61.70;;;;;;5092926;28;20076;-90
2022/03/06 12:04:12;;;;;;;30.67;22.40;;;7.80;61.60;;;;;;5078808;28;20055;-91
2022/03/06 12:06:47;;;;;;;28.63;21.67;;;7.80;61.50;;;;;;5073294;28;20049;-91
2022/03/06 12:09:17;;;;;;;25.80;20.33;;;7.90;61.30;;;;;;5074992;28;20490;-92
2022/03/06 12:11:46;;;;;;;27.55;20.10;;;7.90;61.20;;;;;;5072005;28;20099;-91
2022/03/06 12:14:31;;;;;;;26.90;20.02;;;7.90;61.00;;;;;;5087086;28;20105;-91
2022/03/06 12:17:00;;;;;;;27.83;20.83;;;8.00;60.70;;;;;;5073077;28;20601;-90
2022/03/06 12:19:30;;;;;;;28.17;21.30;;;8.00;60.50;;;;;;5072801;28;20044;-86
2022/03/06 12:22:15;;;;;;;28.00;20.65;;;8.00;60.40;;;;;;5080936;28;20101;-87
2022/03/06 12:24:45;;;;;;;27.65;20.98;;;8.10;60.30;;;;;;5080398;28;20052;-86
2022/03/06 12:27:20;;;;;;;26.67;20.45;;;8.10;60.20;;;;;;5088934;28;20440;-87
2022/03/06 12:29:51;;;;;;;26.08;20.50;;;8.10;60.00;;;;;;5089398;28;20048;-86
2022/03/06 12:32:24;;;;;;;28.90;20.60;;;8.20;59.90;;;;;;5090849;28;20518;-86
2022/03/06 12:35:03;;;;;;;27.90;19.83;;;8.20;59.70;;;;;;5089239;28;20052;-86
2022/03/06 12:37:49;;;;;;;27.42;20.67;;;8.20;59.50;;;;;;5091517;28;20052;-86
2022/03/06 12:40:26;;;;;;;28.13;21.10;;;8.30;59.30;;;;;;5089543;28;20052;-87
2022/03/06 12:43:02;;;;;;;26.27;20.35;;;8.30;59.10;;;;;;5089704;28;20456;-87
2022/03/06 12:45:30;;;;;;;25.60;19.60;;;8.40;58.90;;;;;;5088727;28;20052;-88